Time;durP1;ratioP1;P1;durP2;ratioP2;P2;SDS_P1;SDS_P2;PMS_P1;PMS_P2;Temp;Humidity;BMP_temperature;BMP_pressure;BME280_temperature;BME280_humidity;BME280_pressure;Samples;Min_cycle;Max_cycle;Signal;HPM_P1;HPM_P2
2023/03/19 00:02:03;;;;;;;4.70;2.63;;;7.20;99.90;;;;;;5076359;28;25140;-82
2023/03/19 00:04:31;;;;;;;7.63;2.97;;;7.10;99.90;;;;;;5076267;28;25125;-82
2023/03/19 00:06:59;;;;;;;6.88;3.60;;;7.00;99.90;;;;;;5076534;28;25102;-82
2023/03/19 00:09:26;;;;;;;5.97;3.35;;;6.90;99.90;;;;;;5076436;28;25106;-82
2023/03/19 00:11:53;;;;;;;5.10;2.75;;;6.90;99.90;;;;;;5058702;28;25088;-82
2023/03/19 00:14:21;;;;;;;5.82;2.35;;;6.80;99.90;;;;;;5074655;28;25127;-81
2023/03/19 00:16:49;;;;;;;6.05;3.03;;;6.70;99.90;;;;;;5076647;28;25074;-81
2023/03/19 00:19:17;;;;;;;4.78;3.17;;;6.70;99.90;;;;;;5059190;28;25134;-82
2023/03/19 00:21:44;;;;;;;8.50;3.40;;;6.60;99.90;;;;;;5080298;28;25070;-82
2023/03/19 00:24:11;;;;;;;7.97;2.85;;;6.60;99.90;;;;;;5080491;28;25052;-82
2023/03/19 00:26:39;;;;;;;5.70;3.38;;;6.60;99.90;;;;;;5062451;28;25155;-81
2023/03/19 00:29:07;;;;;;;5.07;3.15;;;6.50;99.90;;;;;;5062256;28;25123;-82
2023/03/19 00:31:34;;;;;;;7.13;3.30;;;6.50;99.90;;;;;;5080068;28;25058;-81
2023/03/19 00:34:02;;;;;;;7.22;2.92;;;6.50;99.90;;;;;;5062229;28;25099;-82
2023/03/19 00:36:30;;;;;;;4.30;2.97;;;6.40;99.90;;;;;;5062367;28;25079;-81
2023/03/19 00:38:58;;;;;;;5.55;3.20;;;6.40;99.90;;;;;;5079895;28;25063;-82
2023/03/19 00:41:26;;;;;;;5.65;2.33;;;6.40;99.90;;;;;;5079872;28;25079;-81
2023/03/19 00:43:57;;;;;;;5.85;3.00;;;6.30;99.90;;;;;;5078158;28;25068;-81
2023/03/19 00:46:26;;;;;;;5.50;2.80;;;6.30;99.90;;;;;;5062132;28;25112;-81
2023/03/19 00:48:54;;;;;;;4.85;2.90;;;6.20;99.90;;;;;;5057931;28;25099;-82
2023/03/19 00:51:23;;;;;;;3.83;2.40;;;6.20;99.90;;;;;;5059442;28;25045;-81
2023/03/19 00:53:51;;;;;;;8.40;2.97;;;6.20;99.90;;;;;;5059654;28;25135;-82
2023/03/19 00:56:18;;;;;;;7.35;2.80;;;6.20;99.90;;;;;;5059528;28;25138;-82
2023/03/19 00:58:46;;;;;;;5.22;2.55;;;6.10;99.90;;;;;;5059473;28;25135;-82
2023/03/19 01:01:16;;;;;;;4.55;2.75;;;6.10;99.90;;;;;;5060121;28;25123;-82
2023/03/19 01:03:45;;;;;;;5.18;2.72;;;6.00;99.90;;;;;;5057616;28;25065;-82
2023/03/19 01:06:13;;;;;;;4.68;2.47;;;5.90;99.90;;;;;;5059358;28;25069;-82
2023/03/19 01:08:40;;;;;;;4.82;2.35;;;5.90;99.90;;;;;;5059643;28;25107;-82
2023/03/19 01:11:13;;;;;;;4.63;2.65;;;5.80;99.90;;;;;;5059737;28;25134;-82
2023/03/19 01:13:41;;;;;;;4.10;2.35;;;5.80;99.90;;;;;;5059544;28;25060;-82
2023/03/19 01:16:09;;;;;;;3.47;2.20;;;5.80;99.90;;;;;;5059479;28;25081;-82
2023/03/19 01:18:37;;;;;;;4.45;2.45;;;5.70;99.90;;;;;;5059158;28;25079;-82
2023/03/19 01:21:05;;;;;;;6.22;2.45;;;5.70;99.90;;;;;;5058252;28;25111;-82
2023/03/19 01:23:32;;;;;;;4.40;2.45;;;5.60;99.90;;;;;;5059366;28;25118;-82
2023/03/19 01:25:59;;;;;;;3.33;2.22;;;5.50;99.90;;;;;;5059305;28;25053;-82
2023/03/19 01:28:27;;;;;;;3.63;2.20;;;5.50;99.90;;;;;;5057790;28;25065;-81
2023/03/19 01:31:00;;;;;;;4.47;2.47;;;5.40;99.90;;;;;;5056641;28;25054;-82
2023/03/19 01:33:28;;;;;;;6.28;2.67;;;5.40;99.90;;;;;;5058843;28;25073;-82
2023/03/19 01:35:56;;;;;;;4.78;2.63;;;5.40;99.90;;;;;;5058330;28;25049;-82
2023/03/19 01:38:24;;;;;;;5.43;2.72;;;5.30;99.90;;;;;;5056839;28;25076;-82
2023/03/19 01:40:52;;;;;;;6.75;2.92;;;5.30;99.90;;;;;;5058323;28;25103;-82
2023/03/19 01:43:24;;;;;;;4.50;2.42;;;5.30;99.90;;;;;;5058674;28;25055;-82
2023/03/19 01:46:01;;;;;;;3.83;2.35;;;5.30;99.90;;;;;;5058763;28;25135;-82
2023/03/19 01:48:40;;;;;;;4.80;2.47;;;5.20;99.90;;;;;;5059579;28;25120;-81
2023/03/19 01:51:12;;;;;;;7.82;2.42;;;5.20;99.90;;;;;;5061049;28;25114;-81
2023/03/19 01:53:43;;;;;;;6.43;2.80;;;5.20;99.90;;;;;;5060728;28;25052;-82
2023/03/19 01:56:32;;;;;;;7.88;2.38;;;5.20;99.90;;;;;;5060766;28;25083;-81
2023/03/19 01:59:10;;;;;;;5.05;2.58;;;5.20;99.90;;;;;;5060705;28;25061;-82
2023/03/19 02:01:43;;;;;;;5.10;2.70;;;5.10;99.90;;;;;;5060801;28;25121;-82
2023/03/19 02:04:11;;;;;;;11.25;2.83;;;5.10;99.90;;;;;;5078596;28;25064;-82
2023/03/19 02:06:39;;;;;;;5.18;2.85;;;5.10;99.90;;;;;;5060480;28;25099;-82
2023/03/19 02:09:07;;;;;;;4.82;2.97;;;5.10;99.90;;;;;;5078243;28;25070;-82
2023/03/19 02:11:35;;;;;;;4.00;2.28;;;5.10;99.90;;;;;;5078152;28;25057;-82
2023/03/19 02:14:03;;;;;;;5.35;2.33;;;5.10;99.90;;;;;;5060384;28;25142;-82
2023/03/19 02:16:30;;;;;;;5.22;2.13;;;5.10;99.90;;;;;;5078582;28;25140;-82
2023/03/19 02:18:58;;;;;;;3.53;2.20;;;5.10;99.90;;;;;;5078343;28;25072;-82
2023/03/19 02:21:25;;;;;;;3.95;1.90;;;5.10;99.90;;;;;;5060262;28;25076;-82
2023/03/19 02:24:19;;;;;;;5.20;2.38;;;5.00;99.90;;;;;;5060466;28;25095;-82
2023/03/19 02:26:48;;;;;;;3.13;2.00;;;4.90;99.90;;;;;;5060263;28;25057;-82
2023/03/19 02:29:15;;;;;;;6.90;2.58;;;4.80;99.90;;;;;;5077815;28;25055;-82
2023/03/19 02:31:43;;;;;;;10.45;2.72;;;4.80;99.90;;;;;;5077853;28;25056;-82
2023/03/19 02:34:14;;;;;;;5.70;2.47;;;4.70;99.90;;;;;;5077746;28;25096;-82
2023/03/19 02:36:46;;;;;;;5.53;3.05;;;4.70;99.90;;;;;;5078106;28;25110;-82
2023/03/19 02:39:31;;;;;;;7.45;2.60;;;4.70;99.90;;;;;;5077934;28;25076;-82
2023/03/19 02:42:00;;;;;;;6.03;2.63;;;4.80;99.90;;;;;;5060074;28;25107;-82
2023/03/19 02:44:27;;;;;;;5.63;2.92;;;4.80;99.90;;;;;;5077539;28;25063;-82
2023/03/19 02:46:55;;;;;;;8.48;3.80;;;4.80;99.90;;;;;;5059017;28;25070;-82
2023/03/19 02:49:22;;;;;;;9.68;3.17;;;4.90;99.90;;;;;;5077243;28;25100;-82
2023/03/19 02:51:50;;;;;;;5.00;3.08;;;4.90;99.90;;;;;;5075620;28;25074;-82
2023/03/19 02:54:17;;;;;;;4.05;2.20;;;4.90;99.90;;;;;;5059829;28;25118;-82
2023/03/19 02:56:45;;;;;;;4.00;2.38;;;5.00;99.90;;;;;;5059931;28;25069;-82
2023/03/19 02:59:12;;;;;;;4.25;2.15;;;5.00;99.90;;;;;;5077076;28;25071;-82
2023/03/19 03:01:39;;;;;;;6.68;3.00;;;5.00;99.90;;;;;;5059784;28;25078;-82
2023/03/19 03:04:07;;;;;;;6.78;3.38;;;5.00;99.90;;;;;;5076464;28;25151;-82
2023/03/19 03:06:35;;;;;;;10.35;4.25;;;5.00;99.90;;;;;;5077171;28;25067;-82
2023/03/19 03:09:03;;;;;;;8.35;3.42;;;5.10;99.90;;;;;;5059552;28;25125;-82
2023/03/19 03:11:30;;;;;;;7.82;2.97;;;5.10;99.90;;;;;;5077342;28;25076;-82
2023/03/19 03:13:57;;;;;;;5.35;3.03;;;5.10;99.90;;;;;;5077206;28;25121;-82
2023/03/19 03:16:25;;;;;;;7.45;2.90;;;5.20;99.90;;;;;;5076394;28;25055;-82
2023/03/19 03:18:52;;;;;;;4.38;2.92;;;5.20;99.90;;;;;;5059129;28;25030;-82
2023/03/19 03:21:20;;;;;;;3.63;2.20;;;5.10;99.90;;;;;;5058698;28;25056;-82
2023/03/19 03:23:47;;;;;;;4.43;2.42;;;5.10;99.90;;;;;;5077085;28;25057;-82
2023/03/19 03:26:15;;;;;;;3.65;2.15;;;5.00;99.90;;;;;;5076880;28;25081;-81
2023/03/19 03:28:42;;;;;;;8.95;2.83;;;5.00;99.90;;;;;;5077023;28;25121;-82
2023/03/19 03:31:09;;;;;;;7.35;4.18;;;5.00;99.90;;;;;;5077379;28;25087;-82
2023/03/19 03:33:36;;;;;;;6.38;2.72;;;5.00;99.90;;;;;;5076983;28;25106;-82
2023/03/19 03:36:04;;;;;;;5.60;2.80;;;5.00;99.90;;;;;;5058951;28;25066;-82
2023/03/19 03:38:31;;;;;;;8.73;2.95;;;5.00;99.90;;;;;;5076880;28;25111;-82
2023/03/19 03:40:59;;;;;;;8.20;2.70;;;5.10;99.90;;;;;;5076751;28;25128;-82
2023/03/19 03:43:27;;;;;;;4.72;2.20;;;5.00;99.90;;;;;;5058730;28;25133;-82
2023/03/19 03:45:55;;;;;;;6.13;2.60;;;5.10;99.90;;;;;;5076558;28;25059;-82
2023/03/19 03:48:22;;;;;;;4.22;2.55;;;5.10;99.90;;;;;;5058323;28;25051;-82
2023/03/19 03:50:50;;;;;;;5.38;2.25;;;5.10;99.90;;;;;;5076912;28;25056;-82
2023/03/19 03:53:17;;;;;;;5.78;2.90;;;5.10;99.90;;;;;;5076400;28;25093;-82
2023/03/19 03:55:45;;;;;;;7.93;2.85;;;5.20;99.90;;;;;;5058161;28;25070;-82
2023/03/19 03:58:12;;;;;;;5.65;2.75;;;5.20;99.90;;;;;;5075575;28;25102;-82
2023/03/19 04:00:39;;;;;;;5.78;2.75;;;5.30;99.90;;;;;;5058953;28;25107;-82
2023/03/19 04:03:07;;;;;;;5.15;2.75;;;5.30;99.90;;;;;;5057806;28;25078;-82
2023/03/19 04:05:36;;;;;;;6.13;2.65;;;5.30;99.90;;;;;;5058182;28;25090;-82
2023/03/19 04:08:05;;;;;;;3.28;2.10;;;5.40;99.90;;;;;;5076024;28;25110;-82
2023/03/19 04:10:34;;;;;;;4.13;2.17;;;5.40;99.90;;;;;;5058618;28;25082;-82
2023/03/19 04:13:02;;;;;;;7.82;2.42;;;5.40;99.90;;;;;;5076153;28;25075;-82
2023/03/19 04:15:30;;;;;;;3.70;2.22;;;5.40;99.90;;;;;;5058344;28;25068;-82
2023/03/19 04:17:57;;;;;;;4.53;2.20;;;5.50;99.90;;;;;;5076158;28;25066;-82
2023/03/19 04:20:24;;;;;;;7.82;2.40;;;5.50;99.90;;;;;;5075548;28;25063;-81
2023/03/19 04:22:52;;;;;;;6.13;2.90;;;5.50;99.90;;;;;;5057525;28;25061;-82
2023/03/19 04:25:19;;;;;;;4.82;1.98;;;5.50;99.90;;;;;;5074136;28;25119;-82
2023/03/19 04:27:47;;;;;;;6.88;2.17;;;5.50;99.90;;;;;;5076236;28;25069;-82
2023/03/19 04:30:14;;;;;;;4.78;2.63;;;5.60;99.90;;;;;;5058429;28;25141;-82
2023/03/19 04:32:43;;;;;;;10.15;2.63;;;5.60;99.90;;;;;;5058066;28;25058;-82
2023/03/19 04:35:10;;;;;;;9.20;3.00;;;5.60;99.90;;;;;;5076237;28;25054;-82
2023/03/19 04:37:38;;;;;;;8.35;3.10;;;5.70;99.90;;;;;;5075960;28;25145;-81
2023/03/19 04:40:06;;;;;;;6.60;3.40;;;5.70;99.90;;;;;;5075934;28;25089;-83
2023/03/19 04:42:33;;;;;;;5.40;2.33;;;5.80;99.90;;;;;;5058166;28;25093;-81
2023/03/19 04:45:00;;;;;;;6.00;3.30;;;5.80;99.90;;;;;;5075899;28;25050;-81
2023/03/19 04:47:27;;;;;;;6.60;2.40;;;5.90;99.90;;;;;;5075221;28;25065;-82
2023/03/19 04:49:54;;;;;;;4.88;2.38;;;5.90;99.90;;;;;;5075652;28;25053;-82
2023/03/19 04:52:22;;;;;;;4.50;2.10;;;5.90;99.90;;;;;;5057382;28;25060;-82
2023/03/19 04:54:49;;;;;;;4.68;2.38;;;6.00;99.90;;;;;;5075826;28;25131;-82
2023/03/19 04:57:19;;;;;;;9.15;2.25;;;6.00;99.90;;;;;;5075795;28;25132;-81
2023/03/19 04:59:46;;;;;;;5.57;2.20;;;6.00;99.90;;;;;;5057941;28;25111;-82
2023/03/19 05:02:13;;;;;;;4.80;1.80;;;6.00;99.90;;;;;;5076032;28;25068;-82
2023/03/19 05:04:40;;;;;;;2.90;1.77;;;6.00;99.90;;;;;;5057917;28;25111;-82
2023/03/19 05:07:08;;;;;;;5.60;2.28;;;6.00;99.90;;;;;;5079608;28;25109;-82
2023/03/19 05:09:35;;;;;;;4.20;2.47;;;6.00;99.90;;;;;;5079315;28;25080;-82
2023/03/19 05:12:02;;;;;;;8.18;2.30;;;6.00;99.90;;;;;;5079329;28;25062;-82
2023/03/19 05:14:30;;;;;;;5.20;1.95;;;6.00;99.90;;;;;;5079266;28;25075;-82
2023/03/19 05:16:57;;;;;;;4.78;1.98;;;6.00;99.90;;;;;;5061618;28;25146;-82
2023/03/19 05:19:25;;;;;;;5.68;2.40;;;6.10;99.90;;;;;;5079198;28;25075;-82
2023/03/19 05:21:52;;;;;;;8.25;2.33;;;6.10;99.90;;;;;;5079508;28;25062;-82
2023/03/19 05:24:20;;;;;;;3.72;2.03;;;6.20;99.90;;;;;;5079122;28;25080;-81
2023/03/19 05:26:47;;;;;;;6.10;2.20;;;6.20;99.90;;;;;;5062110;28;25105;-81
2023/03/19 05:29:14;;;;;;;5.28;2.60;;;6.20;99.90;;;;;;5061218;28;25073;-81
2023/03/19 05:31:42;;;;;;;4.70;2.45;;;6.20;99.90;;;;;;5079055;28;25082;-82
2023/03/19 05:34:09;;;;;;;6.88;2.85;;;6.20;99.90;;;;;;5079189;28;25071;-82
2023/03/19 05:36:36;;;;;;;5.10;2.30;;;6.30;99.90;;;;;;5079337;28;25047;-82
2023/03/19 05:39:04;;;;;;;4.68;2.60;;;6.30;99.90;;;;;;5079159;28;25100;-82
2023/03/19 05:41:32;;;;;;;3.88;2.10;;;6.30;99.90;;;;;;5079117;28;25109;-82
2023/03/19 05:43:59;;;;;;;4.90;2.60;;;6.40;99.90;;;;;;5079056;28;25066;-82
2023/03/19 05:46:26;;;;;;;4.65;2.20;;;6.50;99.90;;;;;;5061042;28;25100;-82
2023/03/19 05:48:54;;;;;;;4.82;2.25;;;6.50;99.90;;;;;;5078771;28;25114;-82
2023/03/19 05:51:21;;;;;;;7.53;2.15;;;6.50;99.90;;;;;;5060789;28;25062;-81
2023/03/19 05:53:48;;;;;;;4.15;2.25;;;6.60;99.90;;;;;;5078849;28;25104;-82
2023/03/19 05:56:15;;;;;;;8.68;3.03;;;6.60;99.90;;;;;;5060694;28;25054;-82
2023/03/19 05:58:42;;;;;;;7.82;2.85;;;6.60;99.90;;;;;;5078000;28;25063;-82
2023/03/19 06:01:10;;;;;;;6.13;2.40;;;6.70;99.90;;;;;;5077415;28;25115;-83
2023/03/19 06:03:38;;;;;;;5.28;2.08;;;6.70;99.90;;;;;;5078571;28;25072;-83
2023/03/19 06:06:05;;;;;;;4.93;2.22;;;6.80;99.90;;;;;;5078642;28;25085;-83
2023/03/19 06:08:32;;;;;;;6.65;2.20;;;6.80;99.90;;;;;;5077452;28;25129;-83
2023/03/19 06:10:59;;;;;;;5.82;2.38;;;6.80;99.90;;;;;;5078390;28;25094;-83
2023/03/19 06:13:26;;;;;;;4.65;2.30;;;6.80;99.90;;;;;;5078477;28;25071;-83
2023/03/19 06:15:53;;;;;;;4.68;2.03;;;6.80;99.90;;;;;;5078428;28;25058;-81
2023/03/19 06:18:20;;;;;;;4.05;2.08;;;6.80;99.90;;;;;;5058841;28;25095;-83
2023/03/19 06:20:47;;;;;;;8.30;2.92;;;6.80;99.90;;;;;;5060485;28;25079;-82
2023/03/19 06:23:15;;;;;;;4.82;2.13;;;6.80;99.90;;;;;;5078285;28;25112;-82
2023/03/19 06:25:43;;;;;;;4.88;1.92;;;6.90;99.90;;;;;;5078246;28;25068;-82
2023/03/19 06:28:11;;;;;;;5.95;2.53;;;7.00;99.90;;;;;;5060352;28;25116;-82
2023/03/19 06:30:38;;;;;;;5.07;2.65;;;7.00;99.90;;;;;;5078289;28;25082;-84
2023/03/19 06:33:05;;;;;;;5.85;2.20;;;7.10;99.90;;;;;;5076258;28;25054;-79
2023/03/19 06:35:33;;;;;;;5.70;2.33;;;7.10;99.90;;;;;;5078372;28;25096;-78
2023/03/19 06:38:00;;;;;;;8.75;2.30;;;7.20;99.90;;;;;;5059967;28;25123;-75
2023/03/19 06:40:27;;;;;;;7.25;2.67;;;7.20;99.90;;;;;;5078095;28;25055;-77
2023/03/19 06:42:53;;;;;;;3.85;1.95;;;7.20;99.90;;;;;;5059901;28;25104;-77
2023/03/19 06:45:20;;;;;;;5.65;3.38;;;7.20;99.90;;;;;;5077866;28;25066;-77
2023/03/19 06:47:48;;;;;;;5.28;2.28;;;7.20;99.90;;;;;;5077537;28;25124;-86
2023/03/19 06:50:16;;;;;;;7.63;2.40;;;7.20;99.90;;;;;;5056367;28;25079;-80
2023/03/19 06:52:44;;;;;;;5.70;2.05;;;7.30;99.90;;;;;;5057505;28;25080;-84
2023/03/19 06:55:12;;;;;;;6.43;2.13;;;7.30;99.90;;;;;;5058433;28;25102;-81
2023/03/19 06:57:39;;;;;;;10.50;2.63;;;7.30;99.90;;;;;;5058162;28;25096;-88
2023/03/19 07:00:10;;;;;;;6.10;2.55;;;7.40;99.90;;;;;;5057822;28;25100;-82
2023/03/19 07:02:37;;;;;;;9.40;2.70;;;7.50;99.90;;;;;;5057816;28;25075;-79
2023/03/19 07:05:05;;;;;;;5.82;2.25;;;7.60;99.90;;;;;;5057481;28;25061;-80
2023/03/19 07:07:33;;;;;;;5.88;2.60;;;7.60;99.90;;;;;;5057083;28;25073;-79
2023/03/19 07:10:00;;;;;;;9.18;2.95;;;7.70;99.90;;;;;;5057371;28;25086;-81
2023/03/19 07:12:27;;;;;;;6.20;2.30;;;7.80;99.90;;;;;;5056025;28;25057;-80
2023/03/19 07:14:55;;;;;;;6.45;2.33;;;8.00;99.90;;;;;;5057055;28;25056;-82
2023/03/19 07:17:25;;;;;;;7.50;3.33;;;8.10;99.90;;;;;;5056033;28;25109;-83
2023/03/19 07:19:53;;;;;;;9.25;3.03;;;8.20;99.90;;;;;;5056103;28;25067;-81
2023/03/19 07:22:21;;;;;;;6.85;3.47;;;8.40;99.90;;;;;;5055961;28;25087;-84
2023/03/19 07:24:48;;;;;;;5.30;2.88;;;8.60;99.90;;;;;;5056379;28;25102;-85
2023/03/19 07:27:16;;;;;;;6.93;2.47;;;8.70;99.90;;;;;;5055950;28;25054;-76
2023/03/19 07:29:43;;;;;;;5.03;2.90;;;8.80;99.90;;;;;;5057039;28;25065;-78
2023/03/19 07:32:11;;;;;;;7.55;2.65;;;9.00;99.90;;;;;;5055707;28;25068;-76
2023/03/19 07:34:38;;;;;;;5.68;3.30;;;9.10;99.90;;;;;;5055612;28;25110;-76
2023/03/19 07:37:06;;;;;;;4.85;2.58;;;9.20;99.90;;;;;;5056756;28;25097;-76
2023/03/19 07:39:33;;;;;;;9.40;2.80;;;9.30;99.90;;;;;;5056621;28;25068;-76
2023/03/19 07:42:00;;;;;;;11.63;3.90;;;9.50;99.90;;;;;;5056887;28;25057;-80
2023/03/19 07:44:29;;;;;;;8.95;2.75;;;9.60;99.90;;;;;;5055659;28;25097;-77
2023/03/19 07:46:57;;;;;;;8.60;3.28;;;9.70;99.90;;;;;;5056602;28;25055;-76
2023/03/19 07:49:25;;;;;;;4.88;2.88;;;9.80;99.90;;;;;;5064569;28;25090;-76
2023/03/19 07:51:52;;;;;;;5.03;2.67;;;9.90;99.90;;;;;;5076496;28;25063;-76
2023/03/19 07:54:20;;;;;;;4.65;2.67;;;9.90;99.90;;;;;;5058637;28;25045;-83
2023/03/19 07:56:47;;;;;;;6.72;2.78;;;10.00;99.90;;;;;;5076804;28;25055;-76
2023/03/19 07:59:14;;;;;;;7.72;3.00;;;10.10;99.90;;;;;;5058452;28;25053;-77
2023/03/19 08:01:41;;;;;;;4.30;2.63;;;10.30;99.90;;;;;;5058571;28;24987;-78
2023/03/19 08:04:09;;;;;;;9.55;3.03;;;10.40;99.90;;;;;;5058476;28;25059;-75
2023/03/19 08:06:37;;;;;;;5.72;2.85;;;10.60;99.90;;;;;;5076907;28;25075;-75
2023/03/19 08:09:05;;;;;;;4.97;2.75;;;10.70;99.90;;;;;;5076535;28;25068;-76
2023/03/19 08:11:33;;;;;;;6.50;2.42;;;10.80;99.90;;;;;;5076199;28;25061;-75
2023/03/19 08:14:00;;;;;;;6.13;2.72;;;10.90;99.90;;;;;;5076720;28;25054;-76
2023/03/19 08:16:28;;;;;;;5.88;3.13;;;11.00;99.90;;;;;;5076459;28;25080;-77
2023/03/19 08:18:55;;;;;;;6.10;2.53;;;11.00;99.90;;;;;;5058348;28;25063;-76
2023/03/19 08:21:22;;;;;;;5.38;2.60;;;11.10;99.90;;;;;;5076124;28;25056;-76
2023/03/19 08:23:49;;;;;;;7.47;3.08;;;11.20;99.90;;;;;;5058310;28;25058;-76
2023/03/19 08:26:17;;;;;;;6.80;3.10;;;11.30;99.90;;;;;;5076295;28;25067;-76
2023/03/19 08:28:44;;;;;;;4.88;2.03;;;11.30;99.90;;;;;;5076032;28;25115;-79
2023/03/19 08:31:13;;;;;;;6.25;2.38;;;11.40;99.90;;;;;;5076380;28;25120;-77
2023/03/19 08:33:41;;;;;;;5.43;2.53;;;11.50;99.90;;;;;;5076184;28;25113;-77
2023/03/19 08:36:13;;;;;;;4.60;2.47;;;11.60;99.90;;;;;;5076131;28;25059;-79
2023/03/19 08:38:40;;;;;;;6.28;2.20;;;11.70;99.90;;;;;;5075960;28;25100;-77
2023/03/19 08:41:09;;;;;;;5.90;1.85;;;11.70;99.90;;;;;;5078731;28;25065;-77
2023/03/19 08:43:36;;;;;;;4.45;2.10;;;11.80;99.90;;;;;;5079976;28;25067;-77
2023/03/19 08:46:05;;;;;;;6.88;2.85;;;11.90;99.90;;;;;;5062331;28;25070;-74
2023/03/19 08:48:32;;;;;;;3.10;1.80;;;11.90;99.90;;;;;;5079805;28;25067;-74
2023/03/19 08:51:02;;;;;;;4.95;2.47;;;12.00;99.90;;;;;;5079791;28;25094;-73
2023/03/19 08:53:30;;;;;;;6.15;2.03;;;12.10;99.90;;;;;;5079647;28;25121;-74
2023/03/19 08:56:00;;;;;;;5.65;2.58;;;12.10;99.90;;;;;;5080263;28;25126;-74
2023/03/19 08:58:28;;;;;;;5.07;2.20;;;12.20;99.90;;;;;;5061834;28;25075;-74
2023/03/19 09:01:09;;;;;;;5.32;2.20;;;12.20;99.90;;;;;;5079530;28;25069;-73
2023/03/19 09:03:37;;;;;;;8.48;2.42;;;12.30;99.90;;;;;;5079461;28;25069;-74
2023/03/19 09:06:07;;;;;;;7.38;2.13;;;12.30;99.90;;;;;;5061899;28;25071;-74
2023/03/19 09:08:36;;;;;;;5.00;1.75;;;12.30;99.90;;;;;;5079366;28;25079;-74
2023/03/19 09:11:04;;;;;;;2.90;1.67;;;12.30;99.90;;;;;;5079774;28;25075;-74
2023/03/19 09:13:32;;;;;;;4.13;2.28;;;12.30;99.90;;;;;;5061567;28;25067;-73
2023/03/19 09:16:00;;;;;;;5.28;1.75;;;12.40;99.90;;;;;;5062278;28;25066;-72
2023/03/19 09:18:27;;;;;;;5.15;1.63;;;12.40;99.90;;;;;;5079270;28;25072;-75
2023/03/19 09:20:56;;;;;;;3.97;1.77;;;12.40;99.90;;;;;;5079112;28;25094;-74
2023/03/19 09:23:23;;;;;;;5.28;1.90;;;12.40;99.90;;;;;;5079151;28;25094;-76
2023/03/19 09:25:50;;;;;;;4.22;1.67;;;12.50;99.90;;;;;;5079596;28;25132;-72
2023/03/19 09:28:19;;;;;;;5.63;1.70;;;12.60;99.90;;;;;;5078958;28;25086;-71
2023/03/19 09:30:48;;;;;;;6.45;1.85;;;12.70;99.90;;;;;;5078986;28;25063;-72
2023/03/19 09:33:18;;;;;;;4.07;2.13;;;12.80;99.90;;;;;;5078896;28;25088;-72
2023/03/19 09:35:51;;;;;;;4.88;1.90;;;12.90;99.90;;;;;;5078987;28;25054;-72
2023/03/19 09:38:20;;;;;;;3.88;1.60;;;12.90;99.90;;;;;;5078830;28;25070;-72
2023/03/19 09:41:10;;;;;;;3.88;1.60;;;13.00;99.90;;;;;;5078988;28;25074;-72
2023/03/19 09:43:56;;;;;;;4.43;1.95;;;13.00;99.90;;;;;;5078695;28;25099;-72
2023/03/19 09:46:34;;;;;;;3.45;1.77;;;13.00;99.90;;;;;;5078699;28;25065;-72
2023/03/19 09:49:22;;;;;;;5.95;1.77;;;13.00;99.90;;;;;;5078408;28;25079;-72
2023/03/19 09:52:05;;;;;;;6.35;2.00;;;12.90;99.90;;;;;;5077582;28;25097;-72
2023/03/19 09:54:45;;;;;;;4.22;1.92;;;12.90;99.90;;;;;;5078614;28;25071;-72
2023/03/19 09:57:13;;;;;;;4.35;1.83;;;12.90;99.90;;;;;;5078658;28;25077;-72
2023/03/19 09:59:41;;;;;;;3.25;1.33;;;13.00;99.90;;;;;;5060737;28;25073;-72
2023/03/19 10:02:26;;;;;;;4.28;1.50;;;13.10;99.90;;;;;;5079108;28;25065;-72
2023/03/19 10:05:05;;;;;;;6.18;1.50;;;13.20;99.90;;;;;;5060620;28;25099;-73
2023/03/19 10:07:45;;;;;;;4.07;1.70;;;13.30;99.90;;;;;;5078893;28;25070;-73
2023/03/19 10:10:36;;;;;;;6.10;1.40;;;13.40;99.90;;;;;;5078990;28;25050;-73
2023/03/19 10:13:26;;;;;;;6.55;2.38;;;13.50;99.90;;;;;;5078266;28;25122;-73
2023/03/19 10:15:54;;;;;;;3.08;1.50;;;13.60;99.90;;;;;;5078889;28;25073;-73
2023/03/19 10:18:31;;;;;;;3.38;1.15;;;13.60;99.90;;;;;;5060335;28;25109;-72
2023/03/19 10:21:00;;;;;;;4.40;1.45;;;13.70;99.90;;;;;;5079035;28;25073;-73
2023/03/19 10:23:39;;;;;;;4.93;1.45;;;13.70;99.90;;;;;;5078190;28;25063;-80
2023/03/19 10:26:26;;;;;;;4.70;1.27;;;13.80;99.90;;;;;;5078008;28;25093;-73
2023/03/19 10:29:14;;;;;;;5.30;1.27;;;13.80;99.90;;;;;;5077779;28;25101;-70
2023/03/19 10:32:00;;;;;;;2.65;1.27;;;13.90;99.90;;;;;;5078015;28;25079;-71
2023/03/19 10:34:37;;;;;;;3.95;1.30;;;14.00;99.90;;;;;;5077988;28;25124;-70
2023/03/19 10:37:15;;;;;;;2.75;1.42;;;14.10;99.90;;;;;;5077742;28;25092;-71
2023/03/19 10:39:44;;;;;;;7.45;1.50;;;14.20;99.90;;;;;;5077519;28;25079;-71
2023/03/19 10:42:40;;;;;;;5.10;1.67;;;14.20;99.90;;;;;;5077818;28;25126;-71
2023/03/19 10:45:28;;;;;;;4.60;1.20;;;14.30;99.90;;;;;;5077515;28;25128;-71
2023/03/19 10:47:57;;;;;;;2.58;1.05;;;14.40;99.90;;;;;;5059806;28;25071;-71
2023/03/19 10:50:35;;;;;;;3.92;1.33;;;14.50;99.90;;;;;;5077241;28;25082;-72
2023/03/19 10:53:32;;;;;;;2.55;0.95;;;14.50;99.90;;;;;;5077959;28;25060;-73
2023/03/19 10:56:16;;;;;;;4.10;1.13;;;14.60;99.90;;;;;;5077211;28;25063;-72
2023/03/19 10:59:04;;;;;;;3.65;1.20;;;14.70;99.90;;;;;;5059584;28;25080;-72
2023/03/19 11:01:35;;;;;;;3.67;1.27;;;14.80;99.90;;;;;;5060982;28;25054;-72
2023/03/19 11:04:13;;;;;;;4.95;0.98;;;15.00;99.90;;;;;;5077066;28;25138;-71
2023/03/19 11:06:40;;;;;;;4.20;1.10;;;15.10;99.90;;;;;;5077528;28;25121;-72
2023/03/19 11:09:09;;;;;;;2.65;1.23;;;15.20;99.90;;;;;;5077762;28;25070;-71
2023/03/19 11:11:47;;;;;;;3.45;1.10;;;15.30;99.90;;;;;;5077631;28;25132;-71
2023/03/19 11:14:39;;;;;;;2.50;1.17;;;15.40;99.90;;;;;;5077061;28;25137;-71
2023/03/19 11:17:20;;;;;;;3.45;1.27;;;15.60;99.90;;;;;;5059365;28;25117;-74
2023/03/19 11:19:58;;;;;;;2.50;0.98;;;15.70;99.90;;;;;;5076734;28;25051;-75
2023/03/19 11:22:32;;;;;;;2.70;1.05;;;15.80;99.90;;;;;;5076922;28;25133;-71
2023/03/19 11:25:27;;;;;;;3.42;1.55;;;15.90;99.90;;;;;;5077415;28;25122;-72
2023/03/19 11:28:08;;;;;;;4.25;1.17;;;16.00;99.90;;;;;;5077296;28;25122;-72
2023/03/19 11:30:57;;;;;;;2.58;1.25;;;16.10;99.90;;;;;;5076757;28;25132;-72
2023/03/19 11:33:52;;;;;;;4.80;1.45;;;16.10;99.90;;;;;;5058935;28;25126;-73
2023/03/19 11:36:49;;;;;;;3.83;1.50;;;16.30;99.90;;;;;;5076821;28;25085;-72
2023/03/19 11:39:35;;;;;;;3.70;1.88;;;16.30;99.90;;;;;;5077156;28;25105;-73
2023/03/19 11:42:30;;;;;;;3.47;1.25;;;16.50;99.90;;;;;;5058863;28;25058;-73
2023/03/19 11:45:34;;;;;;;6.43;1.60;;;16.60;99.90;;;;;;5058779;28;25101;-74
2023/03/19 11:48:35;;;;;;;2.80;1.58;;;16.50;99.90;;;;;;5076779;28;25135;-72
2023/03/19 11:51:47;;;;;;;4.00;2.13;;;16.50;99.90;;;;;;5056713;28;25077;-71
2023/03/19 11:54:35;;;;;;;4.45;1.63;;;16.60;99.90;;;;;;5025904;28;25069;-71
2023/03/19 11:57:27;;;;;;;4.45;1.60;;;16.70;99.90;;;;;;5056972;28;25112;-71
2023/03/19 12:00:22;;;;;;;5.00;1.55;;;16.80;99.90;;;;;;5056236;28;25065;-71
2023/03/19 12:03:11;;;;;;;3.40;1.50;;;17.00;99.90;;;;;;5056600;28;25068;-71
2023/03/19 12:06:01;;;;;;;4.18;1.75;;;17.00;99.90;;;;;;5056370;28;25062;-71
2023/03/19 12:08:47;;;;;;;9.57;3.72;;;17.10;99.90;;;;;;5056730;28;25117;-71
2023/03/19 12:11:43;;;;;;;3.50;1.55;;;17.10;99.90;;;;;;5056694;28;25098;-72
2023/03/19 12:14:13;;;;;;;;;;;17.20;99.90;;;;;;5057028;28;25093;-72
2023/03/19 12:16:54;;;;;;;3.42;1.77;;;17.30;99.90;;;;;;5037840;28;25094;-71
2023/03/19 12:20:04;;;;;;;4.15;1.63;;;17.30;99.90;;;;;;5055640;28;25133;-72
2023/03/19 12:22:59;;;;;;;2.80;1.42;;;17.20;99.90;;;;;;5038396;28;25106;-71
2023/03/19 12:25:44;;;;;;;2.30;1.40;;;17.10;99.90;;;;;;5038316;28;25117;-71
2023/03/19 12:28:33;;;;;;;3.00;1.17;;;17.00;99.90;;;;;;5038259;28;25043;-71
2023/03/19 12:31:19;;;;;;;1.95;1.10;;;17.00;99.90;;;;;;5056151;28;25070;-72
2023/03/19 12:33:46;;;;;;;3.05;1.50;;;17.00;99.90;;;;;;5056251;28;25074;-71
2023/03/19 12:36:28;;;;;;;3.85;1.70;;;17.10;99.90;;;;;;5056521;28;25059;-72
2023/03/19 12:39:18;;;;;;;2.92;1.70;;;17.20;99.90;;;;;;5055837;28;25067;-71
2023/03/19 12:41:47;;;;;;;2.83;1.73;;;17.40;99.90;;;;;;5056041;28;25101;-71
2023/03/19 12:44:27;;;;;;;4.43;2.70;;;17.50;99.90;;;;;;5055730;28;25127;-71
2023/03/19 12:47:08;;;;;;;6.60;3.22;;;17.50;99.90;;;;;;5056355;28;25051;-71
2023/03/19 12:49:46;;;;;;;3.70;2.05;;;17.50;99.90;;;;;;5064759;28;25069;-71
2023/03/19 12:52:22;;;;;;;9.00;4.05;;;17.40;99.90;;;;;;5075995;28;25054;-71
2023/03/19 12:54:59;;;;;;;4.75;2.20;;;17.30;99.90;;;;;;5075749;28;25077;-71
2023/03/19 12:57:41;;;;;;;6.95;3.20;;;17.40;99.90;;;;;;5076351;28;25103;-71
2023/03/19 13:00:19;;;;;;;2.95;1.75;;;17.40;99.90;;;;;;5076475;28;25062;-71
2023/03/19 13:03:03;;;;;;;3.25;1.92;;;17.30;99.90;;;;;;5075750;28;25124;-71
2023/03/19 13:05:47;;;;;;;4.85;1.60;;;17.30;99.90;;;;;;5076356;28;25113;-71
2023/03/19 13:08:23;;;;;;;2.00;1.08;;;17.10;99.90;;;;;;5075659;28;25070;-71
2023/03/19 13:10:51;;;;;;;5.03;1.77;;;17.00;99.90;;;;;;5075797;28;25131;-71
2023/03/19 13:13:28;;;;;;;2.88;1.40;;;16.80;99.90;;;;;;5075618;28;25058;-71
2023/03/19 13:16:14;;;;;;;3.75;1.48;;;16.60;99.90;;;;;;5076230;28;25056;-72
2023/03/19 13:18:58;;;;;;;6.70;2.90;;;16.50;99.90;;;;;;5076144;28;25119;-71